createdAt,value
2023-09-17T00:01:37.170Z,99.80
2023-09-17T00:04:08.243Z,99.73
2023-09-17T00:06:40.572Z,99.67
2023-09-17T00:09:09.378Z,99.99
2023-09-17T00:11:38.301Z,99.88
2023-09-17T00:14:07.278Z,99.67
2023-09-17T00:16:35.978Z,99.99
2023-09-17T00:19:05.429Z,99.88
2023-09-17T00:21:35.695Z,99.99
2023-09-17T00:24:06.237Z,99.99
2023-09-17T00:26:35.420Z,99.98
2023-09-17T00:29:04.908Z,99.75
2023-09-17T00:31:33.525Z,99.99
2023-09-17T00:34:04.340Z,99.99
2023-09-17T00:36:32.971Z,99.90
2023-09-17T00:39:01.293Z,99.99
2023-09-17T00:41:30.990Z,99.99
2023-09-17T00:44:00.037Z,99.99
2023-09-17T00:46:30.511Z,99.99
2023-09-17T00:48:59.937Z,99.99
2023-09-17T00:51:29.248Z,99.99
2023-09-17T00:54:01.741Z,99.99
2023-09-17T00:56:31.826Z,99.99
2023-09-17T00:59:00.245Z,99.99
2023-09-17T01:01:31.012Z,99.99
2023-09-17T01:04:01.076Z,99.99
2023-09-17T01:06:31.405Z,99.99
2023-09-17T01:09:00.738Z,99.99
2023-09-17T01:11:29.930Z,99.99
2023-09-17T01:14:09.243Z,99.99
2023-09-17T01:16:38.529Z,99.99
2023-09-17T01:19:07.966Z,99.99
2023-09-17T01:21:40.666Z,99.95
2023-09-17T01:24:22.906Z,99.99
2023-09-17T01:27:04.952Z,99.99
2023-09-17T01:29:34.580Z,99.99
2023-09-17T01:32:05.000Z,99.95
2023-09-17T01:34:34.706Z,99.99
2023-09-17T01:37:10.368Z,99.99
2023-09-17T01:39:44.299Z,99.99
2023-09-17T01:42:18.609Z,99.99
2023-09-17T01:44:48.977Z,99.99
2023-09-17T01:47:19.492Z,99.99
2023-09-17T01:49:49.025Z,99.99
2023-09-17T01:52:23.552Z,99.99
2023-09-17T01:54:52.941Z,99.99
2023-09-17T01:57:23.479Z,99.99
2023-09-17T01:59:52.073Z,99.99
2023-09-17T02:02:21.088Z,99.99
2023-09-17T02:04:50.751Z,99.99
2023-09-17T02:07:19.578Z,99.99
2023-09-17T02:09:48.146Z,99.99
2023-09-17T02:12:16.955Z,99.99
2023-09-17T02:14:49.381Z,99.99
2023-09-17T02:17:20.726Z,99.99
2023-09-17T02:19:55.464Z,99.99
2023-09-17T02:22:24.232Z,99.99
2023-09-17T02:24:53.634Z,99.99
2023-09-17T02:27:22.456Z,99.99
2023-09-17T02:29:53.616Z,99.99
2023-09-17T02:32:23.168Z,99.99
2023-09-17T02:34:52.055Z,99.99
2023-09-17T02:37:24.062Z,99.99
2023-09-17T02:39:52.966Z,99.93
2023-09-17T02:42:21.386Z,99.99
2023-09-17T02:44:50.104Z,99.99
2023-09-17T02:47:20.707Z,99.99
2023-09-17T02:49:49.157Z,99.99
2023-09-17T02:52:19.861Z,99.99
2023-09-17T02:54:49.154Z,99.99
2023-09-17T02:57:18.993Z,99.99
2023-09-17T02:59:47.569Z,99.99
2023-09-17T03:02:16.451Z,99.99
2023-09-17T03:04:46.371Z,99.99
2023-09-17T03:07:15.979Z,99.99
2023-09-17T03:09:45.273Z,99.99
2023-09-17T03:12:14.179Z,99.99
2023-09-17T03:14:42.556Z,99.99
2023-09-17T03:17:17.563Z,99.99
2023-09-17T03:19:47.574Z,99.99
2023-09-17T03:22:18.841Z,99.99
2023-09-17T03:25:03.197Z,99.99
2023-09-17T03:27:35.007Z,99.99
2023-09-17T03:30:07.858Z,99.99
2023-09-17T03:32:43.513Z,99.99
2023-09-17T03:35:19.846Z,99.80
2023-09-17T03:37:48.622Z,99.75
2023-09-17T03:40:18.547Z,99.70
2023-09-17T03:42:47.617Z,99.99
2023-09-17T03:45:16.642Z,99.99
2023-09-17T03:47:48.964Z,99.99
2023-09-17T03:50:21.669Z,99.99
2023-09-17T03:52:55.253Z,99.99
2023-09-17T03:55:25.275Z,99.99
2023-09-17T03:57:54.289Z,99.99
2023-09-17T04:00:25.182Z,99.99
2023-09-17T04:02:56.237Z,99.99
2023-09-17T04:05:30.116Z,99.99
2023-09-17T04:07:59.170Z,99.99
2023-09-17T04:10:27.811Z,99.99
2023-09-17T04:12:56.514Z,99.99
2023-09-17T04:15:25.080Z,99.99
2023-09-17T04:17:54.785Z,99.99
2023-09-17T04:20:24.945Z,99.99
2023-09-17T04:22:57.737Z,99.99
2023-09-17T04:25:27.566Z,99.99
2023-09-17T04:27:57.119Z,99.99
2023-09-17T04:30:28.315Z,99.99
2023-09-17T04:32:57.685Z,99.99
2023-09-17T04:35:26.934Z,99.99
2023-09-17T04:37:59.424Z,99.99
2023-09-17T04:40:30.089Z,99.99
2023-09-17T04:42:58.998Z,99.99
2023-09-17T04:45:35.777Z,99.99
2023-09-17T04:48:05.838Z,99.99
2023-09-17T04:50:35.374Z,99.99
2023-09-17T04:53:07.963Z,99.99
2023-09-17T04:55:40.794Z,99.99
2023-09-17T04:58:13.293Z,99.99
2023-09-17T05:00:42.444Z,99.99
2023-09-17T05:03:12.038Z,99.99
2023-09-17T05:05:41.117Z,99.99
2023-09-17T05:08:12.278Z,99.99
2023-09-17T05:10:42.271Z,99.99
2023-09-17T05:13:11.476Z,99.99
2023-09-17T05:15:40.504Z,99.99
2023-09-17T05:18:12.310Z,99.99
2023-09-17T05:20:43.370Z,99.99
2023-09-17T05:23:14.146Z,99.99
2023-09-17T05:25:43.914Z,99.99
2023-09-17T05:28:12.774Z,99.99
2023-09-17T05:30:42.323Z,99.99
2023-09-17T05:33:11.965Z,99.99
2023-09-17T05:35:40.630Z,99.99
2023-09-17T05:38:10.138Z,99.99
2023-09-17T05:40:40.232Z,99.99
2023-09-17T05:43:08.623Z,99.99
2023-09-17T05:45:37.532Z,99.99
2023-09-17T05:48:07.017Z,99.71
2023-09-17T05:50:36.180Z,99.73
2023-09-17T05:53:04.752Z,99.80
2023-09-17T05:55:34.629Z,99.86
2023-09-17T05:58:05.936Z,99.32
2023-09-17T06:00:34.690Z,99.10
2023-09-17T06:03:04.418Z,99.00
2023-09-17T06:05:33.377Z,99.01
2023-09-17T06:08:03.596Z,99.36
2023-09-17T06:10:32.435Z,99.06
2023-09-17T06:13:01.229Z,98.98
2023-09-17T06:15:36.098Z,98.67
2023-09-17T06:18:04.741Z,99.00
2023-09-17T06:20:33.482Z,99.64
2023-09-17T06:23:02.200Z,98.78
2023-09-17T06:25:31.786Z,98.06
2023-09-17T06:28:00.576Z,97.81
2023-09-17T06:30:29.340Z,97.16
2023-09-17T06:32:59.497Z,97.17
2023-09-17T06:35:30.490Z,97.65
2023-09-17T06:37:59.605Z,97.21
2023-09-17T06:40:28.528Z,96.56
2023-09-17T06:42:57.242Z,95.80
2023-09-17T06:45:28.822Z,96.43
2023-09-17T06:48:02.085Z,97.25
2023-09-17T06:50:30.636Z,96.81
2023-09-17T06:52:59.459Z,95.11
2023-09-17T06:55:33.177Z,95.71
2023-09-17T06:58:02.736Z,95.64
2023-09-17T07:00:31.538Z,95.76
2023-09-17T07:03:01.553Z,94.67
2023-09-17T07:05:30.315Z,94.93
2023-09-17T07:07:59.184Z,90.56
2023-09-17T07:10:31.037Z,90.99
2023-09-17T07:13:00.835Z,90.85
2023-09-17T07:15:29.976Z,91.71
2023-09-17T07:17:58.929Z,92.05
2023-09-17T07:20:31.079Z,89.01
2023-09-17T07:22:59.969Z,89.57
2023-09-17T07:25:29.342Z,88.33
2023-09-17T07:27:59.307Z,88.76
2023-09-17T07:30:30.106Z,88.97
2023-09-17T07:32:59.389Z,91.00
2023-09-17T07:35:30.016Z,89.76
2023-09-17T07:37:58.390Z,87.64
2023-09-17T07:40:27.892Z,88.18
2023-09-17T07:42:59.359Z,86.63
2023-09-17T07:45:31.342Z,87.90
2023-09-17T07:48:05.498Z,88.44
2023-09-17T07:50:38.439Z,86.10
2023-09-17T07:53:08.561Z,86.01
2023-09-17T07:55:36.892Z,86.40
2023-09-17T07:58:05.946Z,86.54
2023-09-17T08:00:35.170Z,85.63
2023-09-17T08:03:06.410Z,84.60
2023-09-17T08:05:38.134Z,85.97
2023-09-17T08:08:08.481Z,87.13
2023-09-17T08:10:38.983Z,85.47
2023-09-17T08:13:08.967Z,84.44
2023-09-17T08:15:41.035Z,83.21
2023-09-17T08:18:10.418Z,83.88
2023-09-17T08:20:42.609Z,84.08
2023-09-17T08:23:12.443Z,83.49
2023-09-17T08:25:42.685Z,82.07
2023-09-17T08:28:16.382Z,82.38
2023-09-17T08:30:47.178Z,82.35
2023-09-17T08:33:19.504Z,82.11
2023-09-17T08:35:51.012Z,82.30
2023-09-17T08:38:21.446Z,81.98
2023-09-17T08:40:50.730Z,82.16
2023-09-17T08:43:21.220Z,82.13
2023-09-17T08:45:53.717Z,81.55
2023-09-17T08:48:24.079Z,82.36
2023-09-17T08:50:56.734Z,82.96
2023-09-17T08:53:30.977Z,80.56
2023-09-17T08:56:02.733Z,81.00
2023-09-17T08:58:37.308Z,79.29
2023-09-17T09:01:08.724Z,79.49
2023-09-17T09:03:40.207Z,79.85
2023-09-17T09:06:13.522Z,78.22
2023-09-17T09:08:46.065Z,77.53
2023-09-17T09:11:16.031Z,78.32
2023-09-17T09:13:46.390Z,77.70
2023-09-17T09:16:15.564Z,78.13
2023-09-17T09:18:47.206Z,77.43
2023-09-17T09:21:17.301Z,76.51
2023-09-17T09:23:49.886Z,75.24
2023-09-17T09:26:18.930Z,76.08
2023-09-17T09:28:47.571Z,74.88
2023-09-17T09:31:16.430Z,74.89
2023-09-17T09:33:46.249Z,75.10
2023-09-17T09:36:16.667Z,74.44
2023-09-17T09:38:45.109Z,74.99
2023-09-17T09:41:14.396Z,74.19
2023-09-17T09:43:45.135Z,74.32
2023-09-17T09:46:14.927Z,74.84
2023-09-17T09:48:43.531Z,72.91
2023-09-17T09:51:11.940Z,73.48
2023-09-17T09:53:44.789Z,72.70
2023-09-17T09:56:13.527Z,74.48
2023-09-17T09:58:43.379Z,72.00
2023-09-17T10:01:12.062Z,71.82
2023-09-17T10:03:42.233Z,72.48
2023-09-17T10:06:11.412Z,70.85
2023-09-17T10:08:44.154Z,71.30
2023-09-17T10:11:14.305Z,71.28
2023-09-17T10:13:43.816Z,70.84
2023-09-17T10:16:12.399Z,70.41
2023-09-17T10:18:43.572Z,70.64
2023-09-17T10:21:13.421Z,70.51
2023-09-17T10:23:44.153Z,70.19
2023-09-17T10:26:13.346Z,68.29
2023-09-17T10:28:43.588Z,69.05
2023-09-17T10:31:13.466Z,67.39
2023-09-17T10:33:45.729Z,66.95
2023-09-17T10:36:15.500Z,67.50
2023-09-17T10:38:48.946Z,68.04
2023-09-17T10:41:23.881Z,67.17
2023-09-17T10:43:55.202Z,67.18
2023-09-17T10:46:26.603Z,67.43
2023-09-17T10:48:59.203Z,67.14
2023-09-17T10:51:29.144Z,65.50
2023-09-17T10:53:59.424Z,65.56
2023-09-17T10:56:28.833Z,66.21
2023-09-17T10:58:57.829Z,65.92
2023-09-17T11:01:32.289Z,67.94
2023-09-17T11:04:06.713Z,66.73
2023-09-17T11:06:39.463Z,66.41
2023-09-17T11:09:12.451Z,66.57
2023-09-17T11:11:42.138Z,66.61
2023-09-17T11:14:13.682Z,68.13
2023-09-17T11:16:44.273Z,67.65
2023-09-17T11:19:15.610Z,68.31
2023-09-17T11:22:09.601Z,68.26
2023-09-17T11:24:39.324Z,68.11
2023-09-17T11:27:10.111Z,68.08
2023-09-17T11:29:43.624Z,65.09
2023-09-17T11:32:14.225Z,63.84
2023-09-17T11:34:47.161Z,67.50
2023-09-17T11:37:18.176Z,65.59
2023-09-17T11:39:55.289Z,65.44
2023-09-17T11:42:28.036Z,65.19
2023-09-17T11:44:58.170Z,65.14
2023-09-17T11:47:28.324Z,65.99
2023-09-17T11:50:00.409Z,66.09
2023-09-17T11:52:34.550Z,67.04
2023-09-17T11:55:23.970Z,67.75
2023-09-17T11:57:52.250Z,67.99
2023-09-17T12:00:31.377Z,67.91
2023-09-17T12:03:01.373Z,67.85
2023-09-17T12:05:33.366Z,65.72
2023-09-17T12:08:05.608Z,64.39
2023-09-17T12:10:51.389Z,62.89
2023-09-17T12:13:22.206Z,60.29
2023-09-17T12:15:55.253Z,61.76
2023-09-17T12:18:24.384Z,62.42
2023-09-17T12:20:58.591Z,57.25
2023-09-17T12:23:48.382Z,57.56
2023-09-17T12:26:58.446Z,57.22
2023-09-17T12:29:28.921Z,56.07
2023-09-17T12:32:00.073Z,55.46
2023-09-17T12:34:31.762Z,55.62
2023-09-17T12:37:03.834Z,54.27
2023-09-17T12:39:35.286Z,56.90
2023-09-17T12:42:05.327Z,62.00
2023-09-17T12:44:38.346Z,58.83
2023-09-17T12:47:07.958Z,56.60
2023-09-17T12:49:37.201Z,56.12
2023-09-17T12:52:07.738Z,57.52
2023-09-17T12:54:37.520Z,59.12
2023-09-17T12:57:06.891Z,62.31
2023-09-17T12:59:39.043Z,61.71
2023-09-17T13:02:09.565Z,62.86
2023-09-17T13:04:39.835Z,63.33
2023-09-17T13:07:18.426Z,61.30
2023-09-17T13:09:50.936Z,62.22
2023-09-17T13:12:20.411Z,63.58
2023-09-17T13:14:53.373Z,63.43
2023-09-17T13:17:30.536Z,63.04
2023-09-17T13:20:00.817Z,62.80
2023-09-17T13:22:31.463Z,62.31
2023-09-17T13:25:03.411Z,61.52
2023-09-17T13:27:36.896Z,61.50
2023-09-17T13:30:06.672Z,61.41
2023-09-17T13:32:36.904Z,61.51
2023-09-17T13:35:11.919Z,61.93
2023-09-17T13:37:42.339Z,61.32
2023-09-17T13:40:13.313Z,62.23
2023-09-17T13:42:42.023Z,63.32
2023-09-17T13:45:15.186Z,63.63
2023-09-17T13:47:43.949Z,64.25
2023-09-17T13:50:12.666Z,65.17
2023-09-17T13:52:44.555Z,64.05
2023-09-17T13:55:16.141Z,64.51
2023-09-17T13:57:45.411Z,63.39
2023-09-17T14:00:16.470Z,63.03
2023-09-17T14:02:45.321Z,62.49
2023-09-17T14:05:14.586Z,63.20
2023-09-17T14:07:45.239Z,63.15
2023-09-17T14:10:16.958Z,62.97
2023-09-17T14:12:49.010Z,63.59
2023-09-17T14:15:17.945Z,63.09
2023-09-17T14:17:47.925Z,62.14
2023-09-17T14:20:21.437Z,61.71
2023-09-17T14:22:51.325Z,62.40
2023-09-17T14:25:22.735Z,62.77
2023-09-17T14:27:53.134Z,61.71
2023-09-17T14:30:23.856Z,62.21
2023-09-17T14:32:54.356Z,62.47
2023-09-17T14:35:25.387Z,64.54
2023-09-17T14:37:55.692Z,63.48
2023-09-17T14:40:27.821Z,65.17
2023-09-17T14:42:56.937Z,63.52
2023-09-17T14:45:25.502Z,62.68
2023-09-17T14:47:58.595Z,63.81
2023-09-17T14:50:28.058Z,64.42
2023-09-17T14:52:57.137Z,63.35
2023-09-17T14:55:27.306Z,64.11
2023-09-17T14:57:57.289Z,64.50
2023-09-17T15:00:27.980Z,64.67
2023-09-17T15:02:57.378Z,64.12
2023-09-17T15:05:29.780Z,65.01
2023-09-17T15:08:00.343Z,64.40
2023-09-17T15:10:32.962Z,63.26
2023-09-17T15:13:02.193Z,63.70
2023-09-17T15:15:32.462Z,64.57
2023-09-17T15:18:03.174Z,65.44
2023-09-17T15:20:35.411Z,66.29
2023-09-17T15:23:05.094Z,65.20
2023-09-17T15:25:41.166Z,64.68
2023-09-17T15:28:11.947Z,66.18
2023-09-17T15:30:48.052Z,65.37
2023-09-17T15:33:19.374Z,66.74
2023-09-17T15:35:48.326Z,67.14
2023-09-17T15:38:19.027Z,65.55
2023-09-17T15:40:54.716Z,67.19
2023-09-17T15:43:26.485Z,67.40
2023-09-17T15:45:55.663Z,68.11
2023-09-17T15:48:26.382Z,65.96
2023-09-17T15:51:02.687Z,67.42
2023-09-17T15:53:34.488Z,68.43
2023-09-17T15:56:07.387Z,68.08
2023-09-17T15:58:40.590Z,70.06
2023-09-17T16:01:12.094Z,69.94
2023-09-17T16:03:44.820Z,69.29
2023-09-17T16:06:15.701Z,69.57
2023-09-17T16:08:46.485Z,71.14
2023-09-17T16:11:18.153Z,70.97
2023-09-17T16:13:49.058Z,71.19
2023-09-17T16:16:18.158Z,70.91
2023-09-17T16:18:48.778Z,71.32
2023-09-17T16:21:18.926Z,71.90
2023-09-17T16:23:50.702Z,72.18
2023-09-17T16:26:24.027Z,71.51
2023-09-17T16:28:53.525Z,73.70
2023-09-17T16:31:24.882Z,73.89
2023-09-17T16:33:54.969Z,74.34
2023-09-17T16:36:26.584Z,75.05
2023-09-17T16:38:58.615Z,75.13
2023-09-17T16:41:31.435Z,75.77
2023-09-17T16:44:06.587Z,76.53
2023-09-17T16:46:38.687Z,77.34
2023-09-17T16:49:07.454Z,76.74
2023-09-17T16:51:37.894Z,77.37
2023-09-17T16:54:07.768Z,77.60
2023-09-17T16:56:40.356Z,77.58
2023-09-17T16:59:10.668Z,78.12
2023-09-17T17:01:40.945Z,78.39
2023-09-17T17:04:10.251Z,78.99
2023-09-17T17:06:39.549Z,78.79
2023-09-17T17:09:08.669Z,78.59
2023-09-17T17:11:39.774Z,79.39
2023-09-17T17:14:09.045Z,80.03
2023-09-17T17:16:40.280Z,81.20
2023-09-17T17:19:09.572Z,82.11
2023-09-17T17:21:41.258Z,82.39
2023-09-17T17:24:13.028Z,83.57
2023-09-17T17:26:44.245Z,83.74
2023-09-17T17:29:16.513Z,84.13
2023-09-17T17:31:47.059Z,84.51
2023-09-17T17:34:16.612Z,84.97
2023-09-17T17:36:45.780Z,85.53
2023-09-17T17:39:14.945Z,85.55
2023-09-17T17:41:45.626Z,85.35
2023-09-17T17:44:17.068Z,85.61
2023-09-17T17:46:46.685Z,86.21
2023-09-17T17:49:16.027Z,86.91
2023-09-17T17:51:45.524Z,87.20
2023-09-17T17:54:14.594Z,87.06
2023-09-17T17:56:47.269Z,87.68
2023-09-17T17:59:17.494Z,87.96
2023-09-17T18:01:46.734Z,87.69
2023-09-17T18:04:16.390Z,87.69
2023-09-17T18:06:46.638Z,88.30
2023-09-17T18:09:16.724Z,88.62
2023-09-17T18:11:48.858Z,88.03
2023-09-17T18:14:18.368Z,87.90
2023-09-17T18:16:48.924Z,87.77
2023-09-17T18:19:18.998Z,87.96
2023-09-17T18:21:49.420Z,88.00
2023-09-17T18:24:19.014Z,87.76
2023-09-17T18:26:51.098Z,87.34
2023-09-17T18:29:28.725Z,86.65
2023-09-17T18:32:00.314Z,86.74
2023-09-17T18:34:30.772Z,86.39
2023-09-17T18:36:59.818Z,86.60
2023-09-17T18:39:32.308Z,86.67
2023-09-17T18:42:06.250Z,86.97
2023-09-17T18:44:37.954Z,87.19
2023-09-17T18:47:11.461Z,87.04
2023-09-17T18:49:46.407Z,87.06
2023-09-17T18:52:18.816Z,87.34
2023-09-17T18:54:51.727Z,87.15
2023-09-17T18:57:24.286Z,87.00
2023-09-17T18:59:57.758Z,87.07
2023-09-17T19:02:29.404Z,87.09
2023-09-17T19:04:58.452Z,87.41
2023-09-17T19:07:30.927Z,87.44
2023-09-17T19:09:59.893Z,87.52
2023-09-17T19:12:30.841Z,87.90
2023-09-17T19:15:01.923Z,87.82
2023-09-17T19:17:34.009Z,87.92
2023-09-17T19:20:03.156Z,88.00
2023-09-17T19:22:36.266Z,87.99
2023-09-17T19:25:08.330Z,87.77
2023-09-17T19:27:41.710Z,87.54
2023-09-17T19:30:16.753Z,87.82
2023-09-17T19:32:47.680Z,87.91
2023-09-17T19:35:17.267Z,88.18
2023-09-17T19:37:48.655Z,88.04
2023-09-17T19:40:18.569Z,88.19
2023-09-17T19:42:51.611Z,88.02
2023-09-17T19:45:24.174Z,88.57
2023-09-17T19:47:55.176Z,88.95
2023-09-17T19:50:25.220Z,89.26
2023-09-17T19:52:54.858Z,89.69
2023-09-17T19:55:24.213Z,89.43
2023-09-17T19:57:55.145Z,89.37
2023-09-17T20:00:24.358Z,89.83
2023-09-17T20:02:54.694Z,90.00
2023-09-17T20:05:24.184Z,89.95
2023-09-17T20:07:54.701Z,90.20
2023-09-17T20:10:24.835Z,90.22
2023-09-17T20:12:55.349Z,90.43
2023-09-17T20:15:29.336Z,90.58
2023-09-17T20:17:59.517Z,90.90
2023-09-17T20:20:34.238Z,91.21
2023-09-17T20:23:06.280Z,91.52
2023-09-17T20:25:35.839Z,91.22
2023-09-17T20:28:10.382Z,91.63
2023-09-17T20:30:40.706Z,91.76
2023-09-17T20:33:12.726Z,91.43
2023-09-17T20:35:43.415Z,91.66
2023-09-17T20:38:14.374Z,91.69
2023-09-17T20:40:44.124Z,91.79
2023-09-17T20:43:15.938Z,91.79
2023-09-17T20:45:46.459Z,91.93
2023-09-17T20:48:16.746Z,91.70
2023-09-17T20:50:47.518Z,91.69
2023-09-17T20:53:19.861Z,91.75
2023-09-17T20:55:48.758Z,91.94
2023-09-17T20:58:19.046Z,91.83
2023-09-17T21:00:48.941Z,91.98
2023-09-17T21:03:19.638Z,92.06
2023-09-17T21:05:48.757Z,91.95
2023-09-17T21:08:23.474Z,91.74
2023-09-17T21:10:53.340Z,92.10
2023-09-17T21:13:24.840Z,91.64
2023-09-17T21:15:55.277Z,91.62
2023-09-17T21:18:26.158Z,91.71
2023-09-17T21:20:54.666Z,92.02
2023-09-17T21:23:25.241Z,91.22
2023-09-17T21:25:56.002Z,91.40
2023-09-17T21:28:26.637Z,91.31
2023-09-17T21:30:56.812Z,90.58
2023-09-17T21:33:27.286Z,90.89
2023-09-17T21:35:57.768Z,91.20
2023-09-17T21:38:28.424Z,91.13
2023-09-17T21:41:00.695Z,90.93
2023-09-17T21:43:35.716Z,91.21
2023-09-17T21:46:05.838Z,91.01
2023-09-17T21:48:39.569Z,90.62
2023-09-17T21:51:09.008Z,90.01
2023-09-17T21:53:37.341Z,90.48
2023-09-17T21:56:07.980Z,90.70
2023-09-17T21:58:40.165Z,90.74
2023-09-17T22:01:10.352Z,90.84
2023-09-17T22:03:40.368Z,90.55
2023-09-17T22:06:09.456Z,91.04
2023-09-17T22:08:39.957Z,90.87
2023-09-17T22:11:10.852Z,91.38
2023-09-17T22:13:47.734Z,91.01
2023-09-17T22:16:16.491Z,91.33
2023-09-17T22:18:47.295Z,91.56
2023-09-17T22:21:18.200Z,91.34
2023-09-17T22:23:49.097Z,91.66
2023-09-17T22:26:18.200Z,91.54
2023-09-17T22:28:50.884Z,91.68
2023-09-17T22:31:22.549Z,91.85
2023-09-17T22:34:00.245Z,91.96
2023-09-17T22:36:30.370Z,91.36
2023-09-17T22:38:58.964Z,91.72
2023-09-17T22:41:28.467Z,92.36
2023-09-17T22:44:16.144Z,92.07
2023-09-17T22:46:45.631Z,92.35
2023-09-17T22:49:17.922Z,91.96
2023-09-17T22:51:48.398Z,92.24
2023-09-17T22:54:18.990Z,92.50
2023-09-17T22:56:49.874Z,92.53
2023-09-17T22:59:22.764Z,92.54
2023-09-17T23:01:52.277Z,92.61
2023-09-17T23:04:21.710Z,92.64
2023-09-17T23:06:51.556Z,93.01
2023-09-17T23:09:21.720Z,93.08
2023-09-17T23:11:49.991Z,92.82
2023-09-17T23:14:25.680Z,93.16
2023-09-17T23:16:55.300Z,93.47
2023-09-17T23:19:25.427Z,93.42
2023-09-17T23:21:55.083Z,93.82
2023-09-17T23:24:24.006Z,93.96
2023-09-17T23:26:54.554Z,94.38
2023-09-17T23:29:26.083Z,94.12
2023-09-17T23:31:54.942Z,93.71
2023-09-17T23:34:25.275Z,94.29
2023-09-17T23:36:54.534Z,94.18
2023-09-17T23:39:23.103Z,94.12
2023-09-17T23:41:57.679Z,94.27
2023-09-17T23:44:27.757Z,93.83
2023-09-17T23:46:56.562Z,93.15
2023-09-17T23:49:25.510Z,93.89
2023-09-17T23:51:54.212Z,94.02
2023-09-17T23:54:23.034Z,94.19
2023-09-17T23:56:52.634Z,94.28
2023-09-17T23:59:22.587Z,93.97
